createdAt,value
2019-06-10T00:02:22.480Z,20.82
2019-06-10T00:04:50.811Z,20.71
2019-06-10T00:07:18.413Z,20.68
2019-06-10T00:09:45.872Z,20.64
2019-06-10T00:12:13.596Z,20.81
2019-06-10T00:14:41.885Z,20.85
2019-06-10T00:17:11.050Z,20.79
2019-06-10T00:19:40.746Z,20.75
2019-06-10T00:22:08.530Z,20.72
2019-06-10T00:24:37.464Z,20.70
2019-06-10T00:27:05.909Z,20.64
2019-06-10T00:29:34.251Z,20.58
2019-06-10T00:32:04.705Z,20.58
2019-06-10T00:34:31.633Z,20.57
2019-06-10T00:37:02.644Z,20.54
2019-06-10T00:39:31.276Z,20.58
2019-06-10T00:42:02.466Z,20.67
2019-06-10T00:44:28.167Z,20.65
2019-06-10T00:46:55.681Z,20.67
2019-06-10T00:49:23.096Z,20.63
2019-06-10T00:51:51.122Z,20.54
2019-06-10T00:54:18.744Z,20.54
2019-06-10T00:56:46.116Z,20.44
2019-06-10T00:59:15.358Z,20.43
2019-06-10T01:01:42.862Z,20.45
2019-06-10T01:04:14.422Z,20.76
2019-06-10T01:06:42.144Z,20.84
2019-06-10T01:09:11.397Z,20.72
2019-06-10T01:11:38.309Z,20.54
2019-06-10T01:14:05.768Z,20.43
2019-06-10T01:16:33.155Z,20.32
2019-06-10T01:19:01.460Z,20.26
2019-06-10T01:21:31.156Z,20.13
2019-06-10T01:23:58.441Z,20.04
2019-06-10T01:26:25.804Z,19.86
2019-06-10T01:28:53.226Z,19.83
2019-06-10T01:31:24.100Z,19.95
2019-06-10T01:33:51.310Z,20.06
2019-06-10T01:36:21.096Z,20.16
2019-06-10T01:38:50.940Z,20.31
2019-06-10T01:41:17.763Z,20.32
2019-06-10T01:43:45.262Z,20.27
2019-06-10T01:46:14.441Z,20.33
2019-06-10T01:48:47.816Z,20.36
2019-06-10T01:51:17.520Z,20.48
2019-06-10T01:53:45.534Z,20.38
2019-06-10T01:56:15.455Z,20.24
2019-06-10T01:58:42.284Z,20.36
2019-06-10T02:01:18.687Z,20.09
2019-06-10T02:03:46.274Z,20.05
2019-06-10T02:06:17.708Z,20.19
2019-06-10T02:08:43.006Z,20.22
2019-06-10T02:11:14.033Z,20.04
2019-06-10T02:13:40.954Z,19.94
2019-06-10T02:16:10.346Z,19.75
2019-06-10T02:18:37.844Z,19.73
2019-06-10T02:21:05.289Z,19.87
2019-06-10T02:23:32.700Z,19.81
2019-06-10T02:26:01.455Z,19.77
2019-06-10T02:28:31.673Z,19.66
2019-06-10T02:31:02.571Z,19.82
2019-06-10T02:33:34.808Z,19.86
2019-06-10T02:35:57.946Z,19.76
2019-06-10T02:38:33.653Z,19.86
2019-06-10T02:40:54.816Z,19.75
2019-06-10T02:43:32.117Z,19.70
2019-06-10T02:45:53.718Z,19.73
2019-06-10T02:48:24.367Z,19.75
2019-06-10T02:51:08.414Z,19.69
2019-06-10T02:53:37.357Z,19.67
2019-06-10T02:56:06.738Z,19.70
2019-06-10T02:58:38.759Z,19.80
2019-06-10T03:01:04.674Z,19.82
2019-06-10T03:03:42.371Z,19.78
2019-06-10T03:06:07.129Z,19.81
2019-06-10T03:08:35.943Z,19.79
2019-06-10T03:11:03.808Z,19.84
2019-06-10T03:13:30.165Z,19.91
2019-06-10T03:16:35.149Z,20.14
2019-06-10T03:19:03.038Z,20.18
2019-06-10T03:21:32.297Z,20.09
2019-06-10T03:23:59.812Z,19.95
2019-06-10T03:26:27.675Z,20.06
2019-06-10T03:28:55.176Z,20.19
2019-06-10T03:31:31.007Z,20.15
2019-06-10T03:33:54.464Z,20.10
2019-06-10T03:36:23.085Z,19.98
2019-06-10T03:38:53.536Z,19.98
2019-06-10T03:41:22.884Z,19.98
2019-06-10T03:43:49.771Z,19.97
2019-06-10T03:46:17.309Z,19.93
2019-06-10T03:48:44.802Z,20.05
2019-06-10T03:51:12.756Z,19.89
2019-06-10T03:53:42.596Z,19.93
2019-06-10T03:56:12.580Z,20.02
2019-06-10T03:58:39.384Z,20.02
2019-06-10T04:01:06.810Z,20.25
2019-06-10T04:03:34.212Z,20.50
2019-06-10T04:06:02.379Z,20.65
2019-06-10T04:08:32.594Z,20.91
2019-06-10T04:10:59.586Z,21.11
2019-06-10T04:13:28.387Z,21.16
2019-06-10T04:15:57.481Z,21.43
2019-06-10T04:18:26.581Z,21.59
2019-06-10T04:20:54.306Z,21.95
2019-06-10T04:23:23.977Z,22.25
2019-06-10T04:25:52.680Z,22.39
2019-06-10T04:28:20.251Z,22.46
2019-06-10T04:30:47.625Z,22.60
2019-06-10T04:33:15.050Z,22.82
2019-06-10T04:35:42.856Z,23.22
2019-06-10T04:38:10.332Z,23.26
2019-06-10T04:40:38.004Z,23.62
2019-06-10T04:43:05.445Z,24.00
2019-06-10T04:45:32.806Z,24.32
2019-06-10T04:48:00.288Z,25.04
2019-06-10T04:50:39.122Z,24.85
2019-06-10T04:52:57.095Z,25.00
2019-06-10T04:55:26.167Z,25.31
2019-06-10T04:57:53.898Z,25.24
2019-06-10T05:00:24.115Z,25.73
2019-06-10T05:02:52.202Z,26.12
2019-06-10T05:05:23.615Z,26.48
2019-06-10T05:07:49.225Z,26.40
2019-06-10T05:10:16.912Z,27.03
2019-06-10T05:12:44.370Z,27.19
2019-06-10T05:15:12.555Z,27.32
2019-06-10T05:17:40.197Z,27.18
2019-06-10T05:20:09.594Z,27.33
2019-06-10T05:22:37.128Z,27.86
2019-06-10T05:25:04.810Z,27.78
2019-06-10T05:27:33.069Z,27.83
2019-06-10T05:30:02.361Z,28.18
2019-06-10T05:32:31.145Z,28.21
2019-06-10T05:34:59.302Z,28.26
2019-06-10T05:37:28.195Z,28.09
2019-06-10T05:39:56.117Z,28.58
2019-06-10T05:42:26.059Z,28.54
2019-06-10T05:44:53.119Z,28.67
2019-06-10T05:47:23.360Z,28.81
2019-06-10T05:49:49.968Z,28.61
2019-06-10T05:52:17.346Z,28.87
2019-06-10T05:54:44.776Z,28.90
2019-06-10T05:57:12.240Z,29.15
2019-06-10T05:59:39.737Z,28.83
2019-06-10T06:02:07.699Z,28.67
2019-06-10T06:04:36.052Z,28.88
2019-06-10T06:07:03.852Z,29.16
2019-06-10T06:09:33.602Z,29.55
2019-06-10T06:12:02.480Z,29.78
2019-06-10T06:14:31.627Z,29.74
2019-06-10T06:17:02.073Z,29.54
2019-06-10T06:19:30.187Z,29.44
2019-06-10T06:21:58.203Z,29.44
2019-06-10T06:24:25.658Z,29.34
2019-06-10T06:26:53.467Z,29.22
2019-06-10T06:29:22.224Z,29.72
2019-06-10T06:31:52.095Z,29.90
2019-06-10T06:34:19.279Z,29.71
2019-06-10T06:36:46.747Z,29.66
2019-06-10T06:39:14.170Z,29.70
2019-06-10T06:41:42.727Z,29.53
2019-06-10T06:44:12.996Z,29.71
2019-06-10T06:46:42.672Z,29.68
2019-06-10T06:49:09.556Z,29.60
2019-06-10T06:51:49.525Z,29.65
2019-06-10T06:54:06.391Z,29.52
2019-06-10T06:56:36.137Z,29.88
2019-06-10T06:59:03.342Z,29.59
2019-06-10T07:01:34.615Z,29.29
2019-06-10T07:04:02.439Z,29.15
2019-06-10T07:06:32.481Z,29.09
2019-06-10T07:09:07.760Z,28.92
2019-06-10T07:11:35.646Z,28.83
2019-06-10T07:14:03.978Z,28.20
2019-06-10T07:16:34.063Z,27.99
2019-06-10T07:19:02.621Z,27.77
2019-06-10T07:21:30.231Z,27.48
2019-06-10T07:23:57.617Z,27.50
2019-06-10T07:26:25.074Z,26.86
2019-06-10T07:28:53.784Z,26.60
2019-06-10T07:31:27.491Z,26.41
2019-06-10T07:33:52.644Z,25.84
2019-06-10T07:36:20.129Z,25.86
2019-06-10T07:38:49.178Z,26.02
2019-06-10T07:41:17.017Z,25.97
2019-06-10T07:43:49.478Z,25.87
2019-06-10T07:46:13.899Z,25.60
2019-06-10T07:48:46.227Z,25.44
2019-06-10T07:51:12.904Z,25.70
2019-06-10T07:53:42.304Z,26.06
2019-06-10T07:56:09.318Z,25.69
2019-06-10T07:58:37.233Z,25.97
2019-06-10T08:01:06.022Z,26.15
2019-06-10T08:03:35.266Z,26.11
2019-06-10T08:06:03.473Z,26.10
2019-06-10T08:08:32.838Z,26.15
2019-06-10T08:11:03.087Z,26.10
2019-06-10T08:13:32.089Z,26.10
2019-06-10T08:15:59.227Z,25.52
2019-06-10T08:18:26.745Z,25.44
2019-06-10T08:20:54.152Z,25.56
2019-06-10T08:23:23.699Z,25.52
2019-06-10T08:25:56.663Z,25.55
2019-06-10T08:28:22.983Z,25.59
2019-06-10T08:30:49.731Z,25.58
2019-06-10T08:33:17.103Z,25.51
2019-06-10T08:35:55.778Z,25.39
2019-06-10T08:38:14.110Z,25.38
2019-06-10T08:40:45.001Z,25.19
2019-06-10T08:43:13.166Z,25.32
2019-06-10T08:45:43.334Z,25.47
2019-06-10T08:48:09.855Z,25.80
2019-06-10T08:50:37.700Z,25.80
2019-06-10T08:53:13.509Z,25.62
2019-06-10T08:55:34.797Z,25.32
2019-06-10T08:58:03.006Z,25.17
2019-06-10T09:00:33.185Z,25.27
2019-06-10T09:03:03.819Z,25.18
2019-06-10T09:05:32.283Z,25.24
2019-06-10T09:07:59.582Z,25.19
2019-06-10T09:10:27.022Z,25.71
2019-06-10T09:12:54.829Z,26.11
2019-06-10T09:15:23.643Z,26.28
2019-06-10T09:17:55.242Z,26.28
2019-06-10T09:20:23.064Z,26.85
2019-06-10T09:23:13.951Z,26.80
2019-06-10T09:25:22.463Z,26.74
2019-06-10T09:27:51.936Z,26.68
2019-06-10T09:30:19.348Z,26.85
2019-06-10T09:32:51.182Z,27.10
2019-06-10T09:35:16.537Z,27.44
2019-06-10T09:37:48.366Z,27.87
2019-06-10T09:40:14.604Z,27.78
2019-06-10T09:42:46.280Z,27.87
2019-06-10T09:45:13.657Z,27.33
2019-06-10T09:47:45.593Z,27.25
2019-06-10T09:50:12.299Z,27.10
2019-06-10T09:52:41.555Z,26.60
2019-06-10T09:55:12.861Z,25.99
2019-06-10T09:57:43.356Z,25.80
2019-06-10T10:00:12.569Z,25.53
2019-06-10T10:02:44.903Z,23.62
2019-06-10T10:05:10.259Z,21.70
2019-06-10T10:07:38.621Z,20.80
2019-06-10T10:10:07.316Z,20.11
2019-06-10T10:12:34.875Z,19.91
2019-06-10T10:15:22.113Z,19.98
2019-06-10T10:17:33.381Z,20.13
2019-06-10T10:20:03.198Z,20.25
2019-06-10T10:22:30.505Z,20.52
2019-06-10T10:24:57.978Z,20.74
2019-06-10T10:27:25.397Z,21.04
2019-06-10T10:29:57.030Z,21.33
2019-06-10T10:32:23.234Z,22.04
2019-06-10T10:34:52.477Z,22.76
2019-06-10T10:37:22.945Z,22.96
2019-06-10T10:39:53.789Z,23.13
2019-06-10T10:42:19.606Z,22.86
2019-06-10T10:44:50.004Z,23.12
2019-06-10T10:47:16.508Z,23.27
2019-06-10T10:49:45.001Z,23.19
2019-06-10T10:52:12.965Z,23.31
2019-06-10T10:54:44.386Z,23.27
2019-06-10T10:57:10.043Z,23.25
2019-06-10T10:59:37.490Z,23.18
2019-06-10T11:02:04.990Z,23.19
2019-06-10T11:04:33.052Z,23.34
2019-06-10T11:07:01.246Z,23.59
2019-06-10T11:09:29.765Z,23.78
2019-06-10T11:11:59.676Z,23.89
2019-06-10T11:14:28.280Z,24.04
2019-06-10T11:16:57.461Z,24.18
2019-06-10T11:19:25.271Z,24.34
2019-06-10T11:21:53.670Z,24.60
2019-06-10T11:24:35.519Z,24.70
2019-06-10T11:26:54.498Z,25.06
2019-06-10T11:29:20.338Z,25.32
2019-06-10T11:31:48.486Z,25.77
2019-06-10T11:34:19.040Z,25.77
2019-06-10T11:36:46.140Z,25.93
2019-06-10T11:39:13.824Z,25.93
2019-06-10T11:41:43.623Z,25.99
2019-06-10T11:44:10.780Z,26.10
2019-06-10T11:46:38.193Z,26.20
2019-06-10T11:49:05.818Z,26.13
2019-06-10T11:51:33.305Z,26.09
2019-06-10T11:54:03.237Z,26.13
2019-06-10T11:56:33.454Z,26.18
2019-06-10T11:59:03.134Z,26.78
2019-06-10T12:01:28.875Z,27.03
2019-06-10T12:03:58.832Z,26.77
2019-06-10T12:06:25.605Z,26.59
2019-06-10T12:08:57.324Z,26.59
2019-06-10T12:11:23.136Z,26.73
2019-06-10T12:13:53.743Z,26.36
2019-06-10T12:17:14.779Z,25.99
2019-06-10T12:18:49.359Z,25.68
2019-06-10T12:21:16.733Z,25.43
2019-06-10T12:23:44.165Z,25.27
2019-06-10T12:26:11.596Z,25.34
2019-06-10T12:28:38.982Z,25.39
2019-06-10T12:31:07.449Z,25.14
2019-06-10T12:33:35.132Z,25.24
2019-06-10T12:36:06.715Z,25.07
2019-06-10T12:38:33.419Z,25.10
2019-06-10T12:41:07.452Z,25.43
2019-06-10T12:43:32.568Z,25.48
2019-06-10T12:46:00.928Z,25.52
2019-06-10T12:48:29.110Z,25.87
2019-06-10T12:50:58.894Z,25.91
2019-06-10T12:53:26.034Z,25.96
2019-06-10T12:55:55.484Z,25.79
2019-06-10T12:58:22.929Z,25.76
2019-06-10T13:00:53.036Z,25.90
2019-06-10T13:03:19.995Z,25.82
2019-06-10T13:05:47.412Z,25.86
2019-06-10T13:08:15.790Z,25.86
2019-06-10T13:10:44.072Z,26.21
2019-06-10T13:13:11.623Z,26.34
2019-06-10T13:15:43.135Z,26.89
2019-06-10T13:18:17.363Z,27.27
2019-06-10T13:20:39.288Z,27.24
2019-06-10T13:23:17.229Z,27.21
2019-06-10T13:25:50.331Z,27.03
2019-06-10T13:28:06.778Z,26.69
2019-06-10T13:30:34.808Z,26.31
2019-06-10T13:33:06.371Z,26.03
2019-06-10T13:35:32.199Z,25.71
2019-06-10T13:38:00.971Z,25.53
2019-06-10T13:40:29.239Z,25.38
2019-06-10T13:42:57.668Z,25.31
2019-06-10T13:45:25.746Z,25.02
2019-06-10T13:47:53.222Z,24.90
2019-06-10T13:50:22.125Z,24.59
2019-06-10T13:52:52.162Z,24.02
2019-06-10T13:55:22.220Z,23.76
2019-06-10T13:57:49.172Z,23.51
2019-06-10T14:00:17.178Z,23.40
2019-06-10T14:02:44.549Z,23.33
2019-06-10T14:05:18.049Z,23.42
2019-06-10T14:07:43.457Z,23.50
2019-06-10T14:10:17.766Z,23.50
2019-06-10T14:12:43.149Z,23.55
2019-06-10T14:15:12.196Z,23.50
2019-06-10T14:17:41.914Z,23.55
2019-06-10T14:20:10.862Z,23.57
2019-06-10T14:22:39.343Z,23.47
2019-06-10T14:25:09.764Z,23.78
2019-06-10T14:27:36.881Z,23.98
2019-06-10T14:30:06.250Z,24.09
2019-06-10T14:32:34.085Z,24.12
2019-06-10T14:35:01.547Z,24.18
2019-06-10T14:37:35.738Z,24.22
2019-06-10T14:39:58.609Z,24.27
2019-06-10T14:42:25.992Z,24.14
2019-06-10T14:44:53.621Z,24.12
2019-06-10T14:47:22.979Z,23.92
2019-06-10T14:49:52.886Z,23.90
2019-06-10T14:52:19.899Z,23.91
2019-06-10T14:54:47.274Z,23.99
2019-06-10T14:57:15.459Z,24.06
2019-06-10T14:59:44.123Z,24.12
2019-06-10T15:02:12.872Z,24.10
2019-06-10T15:04:42.545Z,24.12
2019-06-10T15:07:11.447Z,24.10
2019-06-10T15:09:39.001Z,24.04
2019-06-10T15:12:07.566Z,24.06
2019-06-10T15:14:35.146Z,24.16
2019-06-10T15:17:08.479Z,24.36
2019-06-10T15:19:36.157Z,24.46
2019-06-10T15:22:03.709Z,24.42
2019-06-10T15:24:33.418Z,24.44
2019-06-10T15:27:10.269Z,24.49
2019-06-10T15:29:32.659Z,24.53
2019-06-10T15:32:10.489Z,24.50
2019-06-10T15:34:28.690Z,24.40
2019-06-10T15:36:56.234Z,24.48
2019-06-10T15:39:24.230Z,24.46
2019-06-10T15:41:52.330Z,24.44
2019-06-10T15:44:41.433Z,24.44
2019-06-10T15:46:49.329Z,24.53
2019-06-10T15:49:19.384Z,24.62
2019-06-10T15:51:46.062Z,24.56
2019-06-10T15:54:15.941Z,24.50
2019-06-10T15:56:51.899Z,24.46
2019-06-10T15:59:13.845Z,24.39
2019-06-10T16:01:41.657Z,24.29
2019-06-10T16:04:09.102Z,24.19
2019-06-10T16:06:36.612Z,24.15
2019-06-10T16:09:06.236Z,24.11
2019-06-10T16:11:33.699Z,24.08
2019-06-10T16:14:02.932Z,24.08
2019-06-10T16:16:32.463Z,24.09
2019-06-10T16:19:02.142Z,24.15
2019-06-10T16:21:29.268Z,24.12
2019-06-10T16:23:56.726Z,24.17
2019-06-10T16:26:26.767Z,24.16
2019-06-10T16:28:53.483Z,24.08
2019-06-10T16:31:24.801Z,23.99
2019-06-10T16:33:52.567Z,23.91
2019-06-10T16:36:21.116Z,23.82
2019-06-10T16:38:49.321Z,23.73
2019-06-10T16:41:17.529Z,23.65
2019-06-10T16:43:45.122Z,23.63
2019-06-10T16:46:12.543Z,23.53
2019-06-10T16:48:39.990Z,23.47
2019-06-10T16:51:07.459Z,23.23
2019-06-10T16:53:35.796Z,23.07
2019-06-10T16:56:03.574Z,22.97
2019-06-10T16:58:33.200Z,22.86
2019-06-10T17:01:03.538Z,22.80
2019-06-10T17:03:33.287Z,22.75
2019-06-10T17:06:02.401Z,22.76
2019-06-10T17:08:30.295Z,22.73
2019-06-10T17:10:57.891Z,22.67
2019-06-10T17:13:28.916Z,22.61
2019-06-10T17:15:56.785Z,22.62
2019-06-10T17:18:26.259Z,22.56
2019-06-10T17:20:53.787Z,22.56
2019-06-10T17:23:26.409Z,22.48
2019-06-10T17:25:53.604Z,22.42
2019-06-10T17:28:25.605Z,22.39
2019-06-10T17:30:53.010Z,22.38
2019-06-10T17:33:22.436Z,22.34
2019-06-10T17:35:49.676Z,22.29
2019-06-10T17:38:17.145Z,22.32
2019-06-10T17:40:45.442Z,22.25
2019-06-10T17:43:12.981Z,22.37
2019-06-10T17:45:42.167Z,22.42
2019-06-10T17:48:09.832Z,22.61
2019-06-10T17:50:37.208Z,22.76
2019-06-10T17:53:04.769Z,22.60
2019-06-10T17:55:34.074Z,22.61
2019-06-10T17:58:02.941Z,22.67
2019-06-10T18:00:33.597Z,22.65
2019-06-10T18:03:03.508Z,22.78
2019-06-10T18:05:29.638Z,22.74
2019-06-10T18:07:57.118Z,22.65
2019-06-10T18:10:25.587Z,22.56
2019-06-10T18:12:53.198Z,22.53
2019-06-10T18:15:22.243Z,22.34
2019-06-10T18:17:52.117Z,22.24
2019-06-10T18:20:19.658Z,22.22
2019-06-10T18:22:47.118Z,22.40
2019-06-10T18:25:16.443Z,22.37
2019-06-10T18:27:43.825Z,22.37
2019-06-10T18:30:14.347Z,22.34
2019-06-10T18:32:42.976Z,22.39
2019-06-10T18:35:10.996Z,22.36
2019-06-10T18:37:39.146Z,22.28
2019-06-10T18:40:08.555Z,22.28
2019-06-10T18:42:37.555Z,22.57
2019-06-10T18:45:09.262Z,22.65
2019-06-10T18:47:37.262Z,22.65
2019-06-10T18:50:07.726Z,22.51
2019-06-10T18:52:35.163Z,22.40
2019-06-10T18:55:03.376Z,22.29
2019-06-10T18:57:33.166Z,22.56
2019-06-10T19:00:02.907Z,22.41
2019-06-10T19:02:30.344Z,22.44
2019-06-10T19:04:57.848Z,22.48
2019-06-10T19:07:25.269Z,22.41
2019-06-10T19:09:52.996Z,22.24
2019-06-10T19:12:22.430Z,22.10
2019-06-10T19:14:52.154Z,21.98
2019-06-10T19:17:19.284Z,21.80
2019-06-10T19:19:46.743Z,21.70
2019-06-10T19:22:14.321Z,21.60
2019-06-10T19:24:44.634Z,21.47
2019-06-10T19:27:11.102Z,21.29
2019-06-10T19:29:45.893Z,21.51
2019-06-10T19:32:08.033Z,21.68
2019-06-10T19:34:35.429Z,21.85
2019-06-10T19:37:03.130Z,21.89
2019-06-10T19:39:35.596Z,21.93
2019-06-10T19:42:02.619Z,21.85
2019-06-10T19:44:29.449Z,21.83
2019-06-10T19:46:56.998Z,21.78
2019-06-10T19:49:24.399Z,21.68
2019-06-10T19:51:52.715Z,21.56
2019-06-10T19:54:20.182Z,21.50
2019-06-10T19:56:47.682Z,21.40
2019-06-10T19:59:15.140Z,21.47
2019-06-10T20:01:46.651Z,21.36
2019-06-10T20:04:15.606Z,21.47
2019-06-10T20:06:45.201Z,21.52
2019-06-10T20:09:13.075Z,21.46
2019-06-10T20:11:41.034Z,21.51
2019-06-10T20:14:09.238Z,21.52
2019-06-10T20:16:37.853Z,21.48
2019-06-10T20:19:05.567Z,21.63
2019-06-10T20:21:33.048Z,21.63
2019-06-10T20:24:02.717Z,21.85
2019-06-10T20:26:29.927Z,21.89
2019-06-10T20:28:57.324Z,21.97
2019-06-10T20:31:24.743Z,22.20
2019-06-10T20:33:52.407Z,22.26
2019-06-10T20:36:25.626Z,22.08
2019-06-10T20:38:51.341Z,21.83
2019-06-10T20:41:18.799Z,21.45
2019-06-10T20:43:47.313Z,21.41
2019-06-10T20:46:15.012Z,21.43
2019-06-10T20:48:45.196Z,21.32
2019-06-10T20:51:13.249Z,21.31
2019-06-10T20:53:43.187Z,21.24
2019-06-10T20:56:12.448Z,21.14
2019-06-10T20:58:40.754Z,21.18
2019-06-10T21:01:08.895Z,21.21
2019-06-10T21:03:36.322Z,21.10
2019-06-10T21:06:04.182Z,21.09
2019-06-10T21:08:33.166Z,20.96
2019-06-10T21:11:02.978Z,20.98
2019-06-10T21:13:32.763Z,20.87
2019-06-10T21:15:59.664Z,20.68
2019-06-10T21:18:27.147Z,20.50
2019-06-10T21:20:56.211Z,20.38
2019-06-10T21:23:23.901Z,20.29
2019-06-10T21:25:52.495Z,20.32
2019-06-10T21:28:20.037Z,20.42
2019-06-10T21:30:53.010Z,20.37
2019-06-10T21:33:16.811Z,20.34
2019-06-10T21:35:46.867Z,20.34
2019-06-10T21:38:13.650Z,20.23
2019-06-10T21:40:42.484Z,20.33
2019-06-10T21:43:12.864Z,20.24
2019-06-10T21:45:42.467Z,19.98
2019-06-10T21:48:09.191Z,19.95
2019-06-10T21:50:36.670Z,19.91
2019-06-10T21:53:04.171Z,20.01
2019-06-10T21:55:33.131Z,19.99
2019-06-10T21:58:03.411Z,20.07
2019-06-10T22:00:52.863Z,20.11
2019-06-10T22:03:08.565Z,19.99
2019-06-10T22:05:35.959Z,20.23
2019-06-10T22:08:03.510Z,20.25
2019-06-10T22:10:33.406Z,20.00
2019-06-10T22:13:02.990Z,19.84
2019-06-10T22:15:29.741Z,19.65
2019-06-10T22:17:57.177Z,19.36
2019-06-10T22:20:24.825Z,19.01
2019-06-10T22:22:53.670Z,18.88
2019-06-10T22:25:22.401Z,18.71
2019-06-10T22:27:50.087Z,18.76
2019-06-10T22:30:17.579Z,18.60
2019-06-10T22:32:45.237Z,18.84
2019-06-10T22:35:12.881Z,18.91
2019-06-10T22:37:40.367Z,18.96
2019-06-10T22:40:07.788Z,18.89
2019-06-10T22:42:35.164Z,18.87
2019-06-10T22:45:03.827Z,18.85
2019-06-10T22:47:32.405Z,18.91
2019-06-10T22:50:04.836Z,18.81
2019-06-10T22:52:29.372Z,19.45
2019-06-10T22:54:58.515Z,19.50
2019-06-10T22:57:26.263Z,19.37
2019-06-10T22:59:56.264Z,19.44
2019-06-10T23:02:22.996Z,19.63
2019-06-10T23:04:51.919Z,19.57
2019-06-10T23:07:19.737Z,19.53
2019-06-10T23:09:48.595Z,19.18
2019-06-10T23:12:16.437Z,18.98
2019-06-10T23:14:43.864Z,18.80
2019-06-10T23:17:14.030Z,18.76
2019-06-10T23:19:42.766Z,18.82
2019-06-10T23:22:09.914Z,18.92
2019-06-10T23:24:37.274Z,19.10
2019-06-10T23:27:04.697Z,19.00
2019-06-10T23:29:32.359Z,19.17
2019-06-10T23:32:05.868Z,19.26
2019-06-10T23:34:29.188Z,19.30
2019-06-10T23:36:58.325Z,19.18
2019-06-10T23:39:26.097Z,18.95
2019-06-10T23:41:55.135Z,18.91
2019-06-10T23:44:23.040Z,18.81
2019-06-10T23:46:51.113Z,18.75
2019-06-10T23:49:18.595Z,19.02
2019-06-10T23:51:46.112Z,19.03
2019-06-10T23:54:13.515Z,18.92
2019-06-10T23:56:42.838Z,19.13
2019-06-10T23:59:12.056Z,19.03
